Weather Models
Both GFS & NAM
00z 06z 12z 18z
24hr Precip
00z 06z 12z 18z
36hr Simulated radar
00z 06z 12z 18z
SKEWT Soundings
00z 12z
Current Conditions (Updated 2:50pm on 2/23/19)
Temperature
 44°
0.20
44°  
36°  
0
10
20
30
40
50
60
70
80
90
100
Dew Point
26°
26°  
19°  
-20
-10
0
10
20
30
40
50
60
70
80
Wind Chill
42°
44°  
27°  
-20
-10
0
10
20
30
40
50
60
70
80
Wind Chill
Humidity
49%
51% 
44% 
0
10
20
30
40
50
60
70
80
90
100
Barometer
30.40
   Steady
30.52  
30.40  
28.00
28.30
28.60
28.90
29.20
29.50
29.80
30.10
30.40
30.70
31.00
Temperature
Dew Point
Humidity
Pressure
Wind
4mph
ENE
Daily Rain
.00
.05
.10
.15
.20
.25
.30
.35
.40
.45
.50
Rain Today
 0.00" 
Month Rain
0.00
0.50
1.00
1.50
2.00
2.50
3.00
3.50
4.00
4.50
5.00
Month Rain
 2.73" 
Year Rain
0.00
1.00
2.00
3.00
4.00
5.00
6.00
7.00
8.00
9.00
10.00
Year Rain
 6.62" 
Sun & Moon Data
Sunrise 6:40am
Sunset 5:43pm
Moonrise 10:41pm
Moonset 9:21am
Moon % 81%
Other Rain Data
Past Hour 0.00 Past 24 Hours 0.00
Past 3 Hours 0.00 Past 7 Days 1.01
Past 6 Hours 0.00
Cloud Height
4473


Current Front Map
Current Satellite map
7 Day Forecast
NWS Forecast for Philadelphia PA
National Weather Service Forecast for: Philadelphia PA
Issued by: National Weather Service Philadelphia, PA
Updated: 12:40 pm EST Feb 23, 2019

Philadelphia
 
This
Afternoon
This Afternoon: A slight chance of rain after 4pm.  Cloudy, with a high near 45. Southeast wind around 5 mph.  Chance of precipitation is 20%.
Slight Chance
Rain

Tonight

Tonight: Rain, mainly after 10pm.  Patchy fog after midnight. Low around 38. East wind 5 to 7 mph.  Chance of precipitation is 100%. New precipitation amounts between a half and three quarters of an inch possible.
Rain Likely
then Rain and
Patchy Fog
Sunday

Sunday: Rain before noon, then a chance of showers between noon and 3pm.  Patchy fog before 10am. High near 62. Southeast wind 6 to 16 mph becoming west in the afternoon. Winds could gust as high as 28 mph.  Chance of precipitation is 90%. New precipitation amounts between a quarter and half of an inch possible.
Rain and
Patchy Fog
then Chance
Showers
Sunday
Night
Sunday Night: Mostly clear, with a low around 32. Breezy, with a west wind around 21 mph, with gusts as high as 45 mph.
Mostly Clear
and Breezy

Monday

Monday: Sunny, with a high near 41. Breezy, with a west wind 20 to 22 mph, with gusts as high as 55 mph.
Sunny and
Breezy

Monday
Night
Monday Night: Mostly clear, with a low around 26.
Mostly Clear

Tuesday

Tuesday: Mostly sunny, with a high near 38.
Mostly Sunny

Tuesday
Night
Tuesday Night: Partly cloudy, with a low around 24.
Partly Cloudy

Wednesday

Wednesday: Partly sunny, with a high near 40.
Partly Sunny

Hi 45 °F Lo 38 °F Hi 62 °F Lo 32 °F Hi 41 °F Lo 26 °F Hi 38 °F Lo 24 °F Hi 40 °F

Hazardous Weather Outlook
High Wind Watch
 

This Afternoon
 
A slight chance of rain after 4pm. Cloudy, with a high near 45. Southeast wind around 5 mph. Chance of precipitation is 20%.
Tonight
 
Rain, mainly after 10pm. Patchy fog after midnight. Low around 38. East wind 5 to 7 mph. Chance of precipitation is 100%. New precipitation amounts between a half and three quarters of an inch possible.
Sunday
 
Rain before noon, then a chance of showers between noon and 3pm. Patchy fog before 10am. High near 62. Southeast wind 6 to 16 mph becoming west in the afternoon. Winds could gust as high as 28 mph. Chance of precipitation is 90%. New precipitation amounts between a quarter and half of an inch possible.
Sunday Night
 
Mostly clear, with a low around 32. Breezy, with a west wind around 21 mph, with gusts as high as 45 mph.
Monday
 
Sunny, with a high near 41. Breezy, with a west wind 20 to 22 mph, with gusts as high as 55 mph.
Monday Night
 
Mostly clear, with a low around 26.
Tuesday
 
Mostly sunny, with a high near 38.
Tuesday Night
 
Partly cloudy, with a low around 24.
Wednesday
 
Partly sunny, with a high near 40.
Wednesday Night
 
A chance of rain showers before 10pm, then a chance of snow showers. Mostly cloudy, with a low around 28. Chance of precipitation is 30%.
Thursday
 
Mostly sunny, with a high near 41.
Thursday Night
 
Partly cloudy, with a low around 27.
Friday
 
Partly sunny, with a high near 42.

 

Forecast from NOAA-NWS for Philadelphia PA.

Area Weather Current Conditions
Nearby METAR Reports

KPHL - Philadelphia, Pennsylvania
Updated: Sat, 23-Feb-2019 1:54pm EST
Overcast
Overcast
 Wind from E
Wind: E 3 mph , 6 km/h
Temperature: 43°F , 6°C
Dew Point: 27°F , -3°C
Humidity: 53%
Barometer: 30.38 inHg , 1028.8 hPa
Clouds: Overcast
Visibility: 10 miles , 16 km
Cloud details: Few Clouds 5000 ft
Overcast 13000 ft
2019/02/23 18:54 KPHL 231854Z 10003KT 10SM FEW050 OVC130 06/M03 A3038 RMK AO2 SLP288 T00561028 $
KMPO - Mt. Pocono, Pennsylvania
Updated: Sat, 23-Feb-2019 1:53pm EST
Clear
Clear
 Wind from SE
Wind: SE 7 mph , 11 km/h
Temperature: 30°F , -1°C
Wind Chill: 23°F , -5°C
Dew Point: 21°F , -6°C
Humidity: 69%
Barometer: 30.28 inHg , 1025.4 hPa
Clouds: Clear
Visibility: 10 miles , 16 km
2019/02/23 18:53 KMPO 231853Z AUTO 13006KT 10SM CLR M01/M06 A3028 RMK AO2 SLP280 T10111061
 
KACY - Atlantic City, New Jersey
Updated: Sat, 23-Feb-2019 1:54pm EST
Clear
Clear
 Wind from E
Wind: E 7 mph , 11 km/h
Temperature: 39°F , 4°C
Wind Chill: 34°F , 1°C
Dew Point: 34°F , 1°C
Humidity: 81%
Barometer: 30.38 inHg , 1028.8 hPa
Clouds: Clear
Visibility: 10 miles , 16 km
2019/02/23 18:54 KACY 231854Z 10006KT 10SM CLR 04/01 A3038 RMK AO2 SLP288 T00440006
KMIV - Millville, New Jersey
Updated: Sat, 23-Feb-2019 1:54pm EST
Overcast
Overcast
 Wind from ESE
Wind: ESE 8 mph , 13 km/h
Temperature: 41°F , 5°C
Wind Chill: 36°F , 2°C
Dew Point: 30°F , -1°C
Humidity: 66%
Barometer: 30.37 inHg , 1028.4 hPa
Clouds: Overcast
Visibility: 10 miles , 16 km
Cloud details: Overcast 11000 ft
2019/02/23 18:54 KMIV 231854Z AUTO 12007KT 10SM OVC110 05/M01 A3037 RMK AO2 SLP284 T00501006 TSNO
 
KWWD - Wildwood, New Jersey
Updated: Sat, 23-Feb-2019 1:55pm EST
Mostly Cloudy
Mostly Cloudy
 Wind from ENE
Wind: ENE 9 mph , 15 km/h
Temperature: 41°F , 5°C
Wind Chill: 35°F , 2°C
Dew Point: 34°F , 1°C
Humidity: 76%
Barometer: 30.37 inHg , 1028.4 hPa
Clouds: Mostly Cloudy
Visibility: 10 miles , 16 km
Cloud details: Mostly Cloudy 9500 ft
2019/02/23 18:55 KWWD 231855Z AUTO 07008KT 10SM BKN095 05/01 A3037 RMK AO2 SLP288 T00500006
KDOV - Dover Afb, Delaware
Updated: Sat, 23-Feb-2019 2:36pm EST
Light rain, Overcast
Light rain, Overcast
 Wind from ENE
Wind: ENE 10 mph , 17 km/h
Temperature: 39°F , 4°C
Wind Chill: 32°F , 0°C
Dew Point: 36°F , 2°C
Humidity: 87%
Barometer: 30.35 inHg , 1027.8 hPa
Summary: Light Rain
Clouds: Overcast
Visibility: 10 miles , 16 km
Cloud details: Overcast 2000 ft
2019/02/23 19:36 KDOV 231936Z AUTO 06009KT 10SM -RA OVC020 04/02 A3035 RMK AO2 CIG 019 RWY19 SLP281 $
Severe Weather Map